createdAt,value
2018-07-07T00:00:22.876Z,2.10
2018-07-07T00:02:51.229Z,1.63
2018-07-07T00:05:19.571Z,2.00
2018-07-07T00:07:47.913Z,1.60
2018-07-07T00:10:17.396Z,1.67
2018-07-07T00:12:46.828Z,1.80
2018-07-07T00:15:18.136Z,2.13
2018-07-07T00:17:47.928Z,2.20
2018-07-07T00:20:17.690Z,2.10
2018-07-07T00:22:46.552Z,1.80
2018-07-07T00:25:16.141Z,2.37
2018-07-07T00:27:45.339Z,2.50
2018-07-07T00:30:13.656Z,1.83
2018-07-07T00:32:41.996Z,2.20
2018-07-07T00:35:10.598Z,2.23
2018-07-07T00:37:39.825Z,2.90
2018-07-07T00:40:09.978Z,2.00
2018-07-07T00:42:38.845Z,1.77
2018-07-07T00:45:07.401Z,2.50
2018-07-07T00:47:35.788Z,2.00
2018-07-07T00:50:05.680Z,1.83
2018-07-07T00:52:35.180Z,1.80
2018-07-07T00:55:04.300Z,2.00
2018-07-07T00:57:33.305Z,2.07
2018-07-07T01:00:01.649Z,2.13
2018-07-07T01:02:30.879Z,2.20
2018-07-07T01:04:59.954Z,1.97
2018-07-07T01:07:28.881Z,1.93
2018-07-07T01:09:57.894Z,2.27
2018-07-07T01:12:26.241Z,2.30
2018-07-07T01:14:54.583Z,3.33
2018-07-07T01:17:22.913Z,2.57
2018-07-07T01:19:51.270Z,2.00
2018-07-07T01:22:19.598Z,2.83
2018-07-07T01:24:47.934Z,2.27
2018-07-07T01:27:16.321Z,3.77
2018-07-07T01:29:44.658Z,2.67
2018-07-07T01:32:13.057Z,3.43
2018-07-07T01:34:41.393Z,2.57
2018-07-07T01:37:09.724Z,2.53
2018-07-07T01:39:38.073Z,2.60
2018-07-07T01:42:06.569Z,2.53
2018-07-07T01:44:36.208Z,2.87
2018-07-07T01:47:05.619Z,2.83
2018-07-07T01:49:34.999Z,2.90
2018-07-07T01:52:05.042Z,2.57
2018-07-07T01:54:34.745Z,2.70
2018-07-07T01:57:04.114Z,2.63
2018-07-07T01:59:33.948Z,3.20
2018-07-07T02:02:03.595Z,2.40
2018-07-07T02:04:31.937Z,3.20
2018-07-07T02:07:01.631Z,2.50
2018-07-07T02:09:30.870Z,3.10
2018-07-07T02:12:00.127Z,2.37
2018-07-07T02:14:28.869Z,2.40
2018-07-07T02:16:57.846Z,2.90
2018-07-07T02:19:26.185Z,2.90
2018-07-07T02:21:54.517Z,2.43
2018-07-07T02:24:22.864Z,3.20
2018-07-07T02:26:51.213Z,2.47
2018-07-07T02:29:19.548Z,3.10
2018-07-07T02:31:47.908Z,2.90
2018-07-07T02:34:16.273Z,3.60
2018-07-07T02:36:44.613Z,3.20
2018-07-07T02:39:12.976Z,2.87
2018-07-07T02:41:41.314Z,3.70
2018-07-07T02:44:09.674Z,3.27
2018-07-07T02:46:38.021Z,3.07
2018-07-07T02:49:06.369Z,2.60
2018-07-07T02:51:35.777Z,4.53
2018-07-07T02:54:05.142Z,5.30
2018-07-07T02:56:35.086Z,3.63
2018-07-07T02:59:04.849Z,4.10
2018-07-07T03:01:34.415Z,3.43
2018-07-07T03:04:02.766Z,2.97
2018-07-07T03:06:31.353Z,3.60
2018-07-07T03:09:00.663Z,3.87
2018-07-07T03:11:29.742Z,3.30
2018-07-07T03:13:58.801Z,3.60
2018-07-07T03:16:27.149Z,3.43
2018-07-07T03:18:56.401Z,6.03
2018-07-07T03:21:24.729Z,2.93
2018-07-07T03:23:53.278Z,3.10
2018-07-07T03:26:21.654Z,3.80
2018-07-07T03:28:50.022Z,3.17
2018-07-07T03:31:18.397Z,3.10
2018-07-07T03:33:46.766Z,3.77
2018-07-07T03:36:15.105Z,3.60
2018-07-07T03:38:43.500Z,3.20
2018-07-07T03:41:11.841Z,3.20
2018-07-07T03:43:40.489Z,4.70
2018-07-07T03:46:09.070Z,4.00
2018-07-07T03:48:37.581Z,3.67
2018-07-07T03:51:05.953Z,3.93
2018-07-07T03:53:34.598Z,4.37
2018-07-07T03:56:02.939Z,3.30
2018-07-07T03:58:31.269Z,3.90
2018-07-07T04:01:00.086Z,4.03
2018-07-07T04:03:30.489Z,6.93
2018-07-07T04:05:59.874Z,3.00
2018-07-07T04:08:29.021Z,3.67
2018-07-07T04:10:57.442Z,3.70
2018-07-07T04:13:25.797Z,3.47
2018-07-07T04:15:54.136Z,4.20
2018-07-07T04:18:30.834Z,4.23
2018-07-07T04:21:00.777Z,4.70
2018-07-07T04:23:30.157Z,4.00
2018-07-07T04:25:59.010Z,4.20
2018-07-07T04:28:28.370Z,4.57
2018-07-07T04:30:56.715Z,4.30
2018-07-07T04:33:25.385Z,4.50
2018-07-07T04:35:53.737Z,4.40
2018-07-07T04:38:22.089Z,4.07
2018-07-07T04:40:50.484Z,4.90
2018-07-07T04:43:19.313Z,4.07
2018-07-07T04:45:47.866Z,3.90
2018-07-07T04:48:16.594Z,4.43
2018-07-07T04:50:45.166Z,4.00
2018-07-07T04:53:13.501Z,3.00
2018-07-07T04:55:48.752Z,4.43
2018-07-07T04:58:17.083Z,4.17
2018-07-07T05:00:45.478Z,3.57
2018-07-07T05:03:13.853Z,4.40
2018-07-07T05:05:42.192Z,3.60
2018-07-07T05:08:10.560Z,4.10
2018-07-07T05:10:38.916Z,3.83
2018-07-07T05:13:07.393Z,3.83
2018-07-07T05:15:35.857Z,4.10
2018-07-07T05:18:04.851Z,4.53
2018-07-07T05:20:34.238Z,4.33
2018-07-07T05:23:03.278Z,4.30
2018-07-07T05:25:31.622Z,4.10
2018-07-07T05:28:00.940Z,3.93
2018-07-07T05:30:30.369Z,3.80
2018-07-07T05:32:59.190Z,4.10
2018-07-07T05:35:27.972Z,3.93
2018-07-07T05:37:56.352Z,3.47
2018-07-07T05:40:24.709Z,3.90
2018-07-07T05:42:53.174Z,3.40
2018-07-07T05:45:21.894Z,3.90
2018-07-07T05:47:50.246Z,4.50
2018-07-07T05:50:18.605Z,4.43
2018-07-07T05:52:46.959Z,4.30
2018-07-07T05:55:15.427Z,3.50
2018-07-07T05:57:43.821Z,3.47
2018-07-07T06:00:13.388Z,4.13
2018-07-07T06:02:41.756Z,4.50
2018-07-07T06:05:15.185Z,3.53
2018-07-07T06:07:43.648Z,4.23
2018-07-07T06:10:11.997Z,4.77
2018-07-07T06:12:40.342Z,4.27
2018-07-07T06:15:09.205Z,3.60
2018-07-07T06:17:37.557Z,4.30
2018-07-07T06:20:05.926Z,3.97
2018-07-07T06:22:35.656Z,4.30
2018-07-07T06:25:05.194Z,2.97
2018-07-07T06:27:35.178Z,3.33
2018-07-07T06:30:05.225Z,4.00
2018-07-07T06:32:34.429Z,3.67
2018-07-07T06:35:02.779Z,3.70
2018-07-07T06:37:31.153Z,3.73
2018-07-07T06:40:00.610Z,3.67
2018-07-07T06:42:30.210Z,3.63
2018-07-07T06:44:58.575Z,4.13
2018-07-07T06:47:26.905Z,4.53
2018-07-07T06:49:55.240Z,3.60
2018-07-07T06:52:23.593Z,3.50
2018-07-07T06:54:51.942Z,3.90
2018-07-07T06:57:20.306Z,3.47
2018-07-07T06:59:48.653Z,4.07
2018-07-07T07:02:17.037Z,3.63
2018-07-07T07:04:45.405Z,3.57
2018-07-07T07:07:13.800Z,2.90
2018-07-07T07:09:42.162Z,3.87
2018-07-07T07:12:10.523Z,2.60
2018-07-07T07:14:38.885Z,3.50
2018-07-07T07:17:08.300Z,3.70
2018-07-07T07:19:36.644Z,3.33
2018-07-07T07:22:06.009Z,3.00
2018-07-07T07:24:35.242Z,3.40
2018-07-07T07:27:04.269Z,3.50
2018-07-07T07:29:33.332Z,3.40
2018-07-07T07:32:01.702Z,3.43
2018-07-07T07:34:31.122Z,3.37
2018-07-07T07:37:00.301Z,3.90
2018-07-07T07:39:29.169Z,2.70
2018-07-07T07:41:57.611Z,3.43
2018-07-07T07:44:26.182Z,2.60
2018-07-07T07:46:55.114Z,3.20
2018-07-07T07:49:23.457Z,3.70
2018-07-07T07:51:51.805Z,3.07
2018-07-07T07:54:20.164Z,3.17
2018-07-07T07:56:48.532Z,3.10
2018-07-07T07:59:16.891Z,2.67
2018-07-07T08:01:45.259Z,2.90
2018-07-07T08:04:13.602Z,2.93
2018-07-07T08:06:41.966Z,2.40
2018-07-07T08:09:10.313Z,2.67
2018-07-07T08:11:38.676Z,2.40
2018-07-07T08:14:07.135Z,2.70
2018-07-07T08:16:37.100Z,3.00
2018-07-07T08:19:06.710Z,2.43
2018-07-07T08:21:35.694Z,3.30
2018-07-07T08:24:05.202Z,2.87
2018-07-07T08:26:34.406Z,3.63
2018-07-07T08:29:02.777Z,2.30
2018-07-07T08:31:31.138Z,3.23
2018-07-07T08:34:00.533Z,3.00
2018-07-07T08:36:28.937Z,3.27
2018-07-07T08:38:57.269Z,3.00
2018-07-07T08:41:25.631Z,2.53
2018-07-07T08:43:53.972Z,2.37
2018-07-07T08:46:22.369Z,2.73
2018-07-07T08:48:50.725Z,2.70
2018-07-07T08:51:19.065Z,2.90
2018-07-07T08:53:47.410Z,2.67
2018-07-07T08:56:15.757Z,2.40
2018-07-07T08:58:44.133Z,2.93
2018-07-07T09:01:12.486Z,2.20
2018-07-07T09:03:40.829Z,2.30
2018-07-07T09:06:09.166Z,2.30
2018-07-07T09:08:37.514Z,2.10
2018-07-07T09:11:06.105Z,2.90
2018-07-07T09:13:35.038Z,2.20
2018-07-07T09:16:03.899Z,2.27
2018-07-07T09:18:32.353Z,2.70
2018-07-07T09:21:01.793Z,2.10
2018-07-07T09:23:31.025Z,2.83
2018-07-07T09:26:00.493Z,2.33
2018-07-07T09:28:29.237Z,3.10
2018-07-07T09:30:58.296Z,2.50
2018-07-07T09:33:26.705Z,1.80
2018-07-07T09:35:55.060Z,3.10
2018-07-07T09:38:23.451Z,2.27
2018-07-07T09:40:51.782Z,2.37
2018-07-07T09:43:20.129Z,2.80
2018-07-07T09:45:48.726Z,2.43
2018-07-07T09:48:17.240Z,2.43
2018-07-07T09:50:45.597Z,2.40
2018-07-07T09:53:14.078Z,2.57
2018-07-07T09:55:42.413Z,2.57
2018-07-07T09:58:10.749Z,1.97
2018-07-07T10:00:41.637Z,1.83
2018-07-07T10:03:10.449Z,2.37
2018-07-07T10:05:39.184Z,2.47
2018-07-07T10:08:07.618Z,2.53
2018-07-07T10:10:36.311Z,2.57
2018-07-07T10:13:06.470Z,2.37
2018-07-07T10:15:35.506Z,2.37
2018-07-07T10:18:04.549Z,1.90
2018-07-07T10:20:32.878Z,2.10
2018-07-07T10:23:01.233Z,2.30
2018-07-07T10:25:30.649Z,2.30
2018-07-07T10:27:59.937Z,2.47
2018-07-07T10:30:28.317Z,2.67
2018-07-07T10:32:56.738Z,1.97
2018-07-07T10:35:25.077Z,2.00
2018-07-07T10:37:53.413Z,1.67
2018-07-07T10:40:21.777Z,2.23
2018-07-07T10:42:50.111Z,2.00
2018-07-07T10:45:18.635Z,1.80
2018-07-07T10:47:47.008Z,1.50
2018-07-07T10:50:16.105Z,2.40
2018-07-07T10:52:44.627Z,1.70
2018-07-07T10:55:12.979Z,1.80
2018-07-07T10:57:41.416Z,1.63
2018-07-07T11:00:09.976Z,1.50
2018-07-07T11:02:38.324Z,2.10
2018-07-07T11:05:06.758Z,2.53
2018-07-07T11:07:36.009Z,1.30
2018-07-07T11:10:05.050Z,1.87
2018-07-07T11:12:34.825Z,2.00
2018-07-07T11:15:04.381Z,1.83
2018-07-07T11:17:33.143Z,2.63
2018-07-07T11:20:01.686Z,2.17
2018-07-07T11:22:31.394Z,1.87
2018-07-07T11:25:00.808Z,2.43
2018-07-07T11:27:30.348Z,2.00
2018-07-07T11:29:59.293Z,1.27
2018-07-07T11:32:28.583Z,1.73
2018-07-07T11:34:57.066Z,1.90
2018-07-07T11:37:25.413Z,1.90
2018-07-07T11:39:53.842Z,1.80
2018-07-07T11:42:22.238Z,1.93
2018-07-07T11:44:50.596Z,1.77
2018-07-07T11:47:18.933Z,1.37
2018-07-07T11:49:47.271Z,1.73
2018-07-07T11:52:15.621Z,1.63
2018-07-07T11:54:44.161Z,2.20
2018-07-07T11:57:12.503Z,1.60
2018-07-07T11:59:40.862Z,2.00
2018-07-07T12:02:09.185Z,2.07
2018-07-07T12:04:37.572Z,1.97
2018-07-07T12:07:05.909Z,1.60
2018-07-07T12:09:35.186Z,1.57
2018-07-07T12:12:04.285Z,1.70
2018-07-07T12:14:33.273Z,1.70
2018-07-07T12:17:01.617Z,1.50
2018-07-07T12:19:30.776Z,1.60
2018-07-07T12:22:00.427Z,1.43
2018-07-07T12:24:29.306Z,1.40
2018-07-07T12:26:58.227Z,2.70
2018-07-07T12:29:26.568Z,4.10
2018-07-07T12:31:54.918Z,1.60
2018-07-07T12:34:23.261Z,1.60
2018-07-07T12:36:51.585Z,1.70
2018-07-07T12:39:19.905Z,1.33
2018-07-07T12:41:48.267Z,1.40
2018-07-07T12:44:16.617Z,1.60
2018-07-07T12:46:44.954Z,1.47
2018-07-07T12:49:13.281Z,1.67
2018-07-07T12:51:41.664Z,1.57
2018-07-07T12:54:10.144Z,1.90
2018-07-07T12:56:38.489Z,1.97
2018-07-07T12:59:06.830Z,1.80
2018-07-07T13:01:36.593Z,1.73
2018-07-07T13:04:05.973Z,1.70
2018-07-07T13:06:35.028Z,1.27
2018-07-07T13:09:03.800Z,1.30
2018-07-07T13:11:32.148Z,1.70
2018-07-07T13:14:01.704Z,1.73
2018-07-07T13:16:30.752Z,1.43
2018-07-07T13:19:00.148Z,1.70
2018-07-07T13:21:29.726Z,1.73
2018-07-07T13:23:58.670Z,1.17
2018-07-07T13:26:27.061Z,1.40
2018-07-07T13:28:55.418Z,1.60
2018-07-07T13:31:23.773Z,1.10
2018-07-07T13:33:52.122Z,1.63
2018-07-07T13:36:20.496Z,1.40
2018-07-07T13:38:48.843Z,1.83
2018-07-07T13:41:17.223Z,1.47
2018-07-07T13:43:45.562Z,1.43
2018-07-07T13:46:13.933Z,1.50
2018-07-07T13:48:42.285Z,1.60
2018-07-07T13:51:10.669Z,1.57
2018-07-07T13:53:39.053Z,1.60
2018-07-07T13:56:07.420Z,1.10
2018-07-07T13:58:36.222Z,1.30
2018-07-07T14:01:05.725Z,1.67
2018-07-07T14:03:34.869Z,1.10
2018-07-07T14:06:04.326Z,1.10
2018-07-07T14:08:33.645Z,1.30
2018-07-07T14:11:02.057Z,1.40
2018-07-07T14:13:31.361Z,1.83
2018-07-07T14:16:00.561Z,1.17
2018-07-07T14:18:29.488Z,1.33
2018-07-07T14:20:57.917Z,1.20
2018-07-07T14:23:26.308Z,1.57
2018-07-07T14:25:54.638Z,1.50
2018-07-07T14:28:23.157Z,1.23
2018-07-07T14:30:51.499Z,1.73
2018-07-07T14:33:19.889Z,1.67
2018-07-07T14:35:48.241Z,1.57
2018-07-07T14:38:16.635Z,1.40
2018-07-07T14:40:57.033Z,1.63
2018-07-07T14:43:35.437Z,1.57
2018-07-07T14:46:08.046Z,1.77
2018-07-07T14:48:36.415Z,1.10
2018-07-07T14:51:05.913Z,1.50
2018-07-07T14:53:34.998Z,1.73
2018-07-07T14:56:04.718Z,1.40
2018-07-07T14:58:34.078Z,1.30
2018-07-07T15:01:03.670Z,1.70
2018-07-07T15:03:32.074Z,1.63
2018-07-07T15:06:01.372Z,1.43
2018-07-07T15:08:30.751Z,1.23
2018-07-07T15:11:00.393Z,1.27
2018-07-07T15:13:29.460Z,1.60
2018-07-07T15:15:57.875Z,1.90
2018-07-07T15:18:26.242Z,1.53
2018-07-07T15:20:54.936Z,1.73
2018-07-07T15:23:23.371Z,1.47
2018-07-07T15:25:51.732Z,2.00
2018-07-07T15:28:20.074Z,1.60
2018-07-07T15:30:48.602Z,1.63
2018-07-07T15:33:16.940Z,1.60
2018-07-07T15:35:45.381Z,2.13
2018-07-07T15:38:13.797Z,1.53
2018-07-07T15:40:42.502Z,1.70
2018-07-07T15:43:10.948Z,1.47
2018-07-07T15:45:39.646Z,1.50
2018-07-07T15:48:08.068Z,2.07
2018-07-07T15:50:36.508Z,1.47
2018-07-07T15:53:06.105Z,1.97
2018-07-07T15:55:35.414Z,1.77
2018-07-07T15:58:04.402Z,2.30
2018-07-07T16:00:33.195Z,1.90
2018-07-07T16:03:01.588Z,2.03
2018-07-07T16:05:31.102Z,1.80
2018-07-07T16:07:59.978Z,1.90
2018-07-07T16:10:29.370Z,2.30
2018-07-07T16:12:58.395Z,2.03
2018-07-07T16:15:26.750Z,1.63
2018-07-07T16:17:55.089Z,1.80
2018-07-07T16:20:23.440Z,1.80
2018-07-07T16:22:52.149Z,1.70
2018-07-07T16:25:20.506Z,1.80
2018-07-07T16:27:48.893Z,1.93
2018-07-07T16:30:17.254Z,1.60
2018-07-07T16:32:45.581Z,1.50
2018-07-07T16:35:13.959Z,2.10
2018-07-07T16:37:42.306Z,2.10
2018-07-07T16:40:10.721Z,1.97
2018-07-07T16:42:39.425Z,1.40
2018-07-07T16:45:08.209Z,1.13
2018-07-07T16:47:36.577Z,1.87
2018-07-07T16:50:05.626Z,1.70
2018-07-07T16:52:35.101Z,1.60
2018-07-07T16:55:04.949Z,1.93
2018-07-07T16:57:34.681Z,2.00
2018-07-07T17:00:04.217Z,2.70
2018-07-07T17:02:33.438Z,2.27
2018-07-07T17:05:01.789Z,1.80
2018-07-07T17:07:30.639Z,3.20
2018-07-07T17:09:59.437Z,1.97
2018-07-07T17:12:28.499Z,2.40
2018-07-07T17:14:56.875Z,1.80
2018-07-07T17:17:25.247Z,1.80
2018-07-07T17:19:53.710Z,1.73
2018-07-07T17:22:22.113Z,1.80
2018-07-07T17:24:50.469Z,2.20
2018-07-07T17:27:18.836Z,1.77
2018-07-07T17:29:47.222Z,1.90
2018-07-07T17:32:15.593Z,2.03
2018-07-07T17:34:43.953Z,1.80
2018-07-07T17:37:12.359Z,1.67
2018-07-07T17:39:40.733Z,2.13
2018-07-07T17:42:09.286Z,1.93
2018-07-07T17:44:37.940Z,1.67
2018-07-07T17:47:09.454Z,1.40
2018-07-07T17:49:38.267Z,1.80
2018-07-07T17:52:07.122Z,2.00
2018-07-07T17:54:35.997Z,1.53
2018-07-07T17:57:05.221Z,2.00
2018-07-07T17:59:34.229Z,2.00
2018-07-07T18:02:03.716Z,1.93
2018-07-07T18:04:32.081Z,1.63
2018-07-07T18:07:01.414Z,1.63
2018-07-07T18:09:30.702Z,2.27
2018-07-07T18:11:59.602Z,1.97
2018-07-07T18:14:27.988Z,1.93
2018-07-07T18:16:56.335Z,1.93
2018-07-07T18:19:24.685Z,2.13
2018-07-07T18:21:53.021Z,1.77
2018-07-07T18:24:21.399Z,2.00
2018-07-07T18:26:49.745Z,2.03
2018-07-07T18:29:18.117Z,1.77
2018-07-07T18:31:46.962Z,2.63
2018-07-07T18:34:15.311Z,2.10
2018-07-07T18:36:43.668Z,1.80
2018-07-07T18:39:12.142Z,1.90
2018-07-07T18:41:40.522Z,1.70
2018-07-07T18:44:08.970Z,2.07
2018-07-07T18:46:37.294Z,1.70
2018-07-07T18:49:06.729Z,2.20
2018-07-07T18:51:36.213Z,2.50
2018-07-07T18:54:05.575Z,2.00
2018-07-07T18:56:34.017Z,2.00
2018-07-07T18:59:02.321Z,1.87
2018-07-07T19:01:31.739Z,1.80
2018-07-07T19:04:01.225Z,2.03
2018-07-07T19:06:30.823Z,1.80
2018-07-07T19:08:59.638Z,1.67
2018-07-07T19:11:28.061Z,1.87
2018-07-07T19:13:56.394Z,2.33
2018-07-07T19:16:24.773Z,1.70
2018-07-07T19:18:53.145Z,1.63
2018-07-07T19:21:26.871Z,1.87
2018-07-07T19:24:00.733Z,2.30
2018-07-07T19:26:34.529Z,2.17
2018-07-07T19:29:04.247Z,1.60
2018-07-07T19:31:36.814Z,2.30
2018-07-07T19:34:11.414Z,2.60
2018-07-07T19:36:45.068Z,2.37
2018-07-07T19:39:14.900Z,1.77
2018-07-07T19:41:43.263Z,2.13
2018-07-07T19:44:11.974Z,2.37
2018-07-07T19:46:40.471Z,1.70
2018-07-07T19:49:08.918Z,2.27
2018-07-07T19:51:37.300Z,1.77
2018-07-07T19:54:07.270Z,1.80
2018-07-07T19:56:36.507Z,2.00
2018-07-07T19:59:06.020Z,1.60
2018-07-07T20:01:35.594Z,1.90
2018-07-07T20:04:05.370Z,2.00
2018-07-07T20:06:33.837Z,2.40
2018-07-07T20:09:02.322Z,2.27
2018-07-07T20:11:31.937Z,1.77
2018-07-07T20:14:01.637Z,1.93
2018-07-07T20:17:13.276Z,2.03
2018-07-07T20:19:56.082Z,2.07
2018-07-07T20:22:24.701Z,2.33
2018-07-07T20:24:53.142Z,2.07
2018-07-07T20:27:26.757Z,1.80
2018-07-07T20:29:55.157Z,1.77
2018-07-07T20:32:28.762Z,2.40
2018-07-07T20:34:57.161Z,1.63
2018-07-07T20:37:25.530Z,3.00
2018-07-07T20:39:53.995Z,2.10
2018-07-07T20:42:22.369Z,2.07
2018-07-07T20:44:50.733Z,1.93
2018-07-07T20:47:19.102Z,2.40
2018-07-07T20:49:47.486Z,2.83
2018-07-07T20:52:15.944Z,2.00
2018-07-07T20:54:44.306Z,1.90
2018-07-07T20:57:12.683Z,2.20
2018-07-07T20:59:41.037Z,2.50
2018-07-07T21:02:09.676Z,2.30
2018-07-07T21:04:38.011Z,2.60
2018-07-07T21:07:06.455Z,2.47
2018-07-07T21:09:36.035Z,2.20
2018-07-07T21:12:05.395Z,2.30
2018-07-07T21:14:33.753Z,2.20
2018-07-07T21:17:02.194Z,1.80
2018-07-07T21:19:31.601Z,2.63
2018-07-07T21:22:01.206Z,2.50
2018-07-07T21:24:30.756Z,2.30
2018-07-07T21:27:00.070Z,2.33
2018-07-07T21:29:29.796Z,2.00
2018-07-07T21:31:58.602Z,2.03
2018-07-07T21:34:26.983Z,2.70
2018-07-07T21:36:55.453Z,2.47
2018-07-07T21:39:23.992Z,2.30
2018-07-07T21:41:52.533Z,2.53
2018-07-07T21:44:21.043Z,2.90
2018-07-07T21:46:49.570Z,2.80
2018-07-07T21:49:17.955Z,2.10
2018-07-07T21:51:46.314Z,2.57
2018-07-07T21:54:14.689Z,2.50
2018-07-07T21:56:43.270Z,2.43
2018-07-07T21:59:16.965Z,2.73
2018-07-07T22:01:56.351Z,2.30
2018-07-07T22:04:30.774Z,1.97
2018-07-07T22:07:04.696Z,2.17
2018-07-07T22:09:34.821Z,2.30
2018-07-07T22:12:03.845Z,2.37
2018-07-07T22:14:33.288Z,2.00
2018-07-07T22:17:02.161Z,2.70
2018-07-07T22:19:31.293Z,2.30
2018-07-07T22:22:04.889Z,2.13
2018-07-07T22:24:34.145Z,2.03
2018-07-07T22:27:04.599Z,2.97
2018-07-07T22:29:34.015Z,2.47
2018-07-07T22:32:04.365Z,2.40
2018-07-07T22:34:35.162Z,2.23
2018-07-07T22:37:05.352Z,2.40
2018-07-07T22:39:36.889Z,2.87
2018-07-07T22:42:08.541Z,3.00
2018-07-07T22:44:37.601Z,2.07
2018-07-07T22:47:06.208Z,2.20
2018-07-07T22:49:35.168Z,2.73
2018-07-07T22:52:04.401Z,2.73
2018-07-07T22:54:32.879Z,2.37
2018-07-07T22:57:02.187Z,3.17
2018-07-07T22:59:31.634Z,2.77
2018-07-07T23:02:00.926Z,2.60
2018-07-07T23:04:29.687Z,2.70
2018-07-07T23:06:59.107Z,2.17
2018-07-07T23:09:27.625Z,2.67
2018-07-07T23:11:56.143Z,2.50
2018-07-07T23:14:25.371Z,1.90
2018-07-07T23:16:57.530Z,2.87
2018-07-07T23:19:25.901Z,3.07
2018-07-07T23:21:54.276Z,2.70
2018-07-07T23:24:22.642Z,2.90
2018-07-07T23:26:51.004Z,2.90
2018-07-07T23:29:19.361Z,4.20
2018-07-07T23:31:47.710Z,2.50
2018-07-07T23:34:16.118Z,2.57
2018-07-07T23:36:44.465Z,2.47
2018-07-07T23:39:12.824Z,3.37
2018-07-07T23:41:41.191Z,2.73
2018-07-07T23:44:09.594Z,2.50
2018-07-07T23:46:38.969Z,2.23
2018-07-07T23:49:07.326Z,2.40
2018-07-07T23:51:37.048Z,2.60
2018-07-07T23:54:06.584Z,3.20
2018-07-07T23:56:36.380Z,2.87
2018-07-07T23:59:05.997Z,2.80
